WLF344 KPHX-KDFW
Flight info
| Callsign | WLF344 |
|---|---|
| Flight time | 1h 46m |
| Altitude | 35000 |
| Route | BROAK1 MAXXO TXO TURKI JOVEM6 |
| Aircraft | B77L/H-SDE1E2E3FGHIJ2J3J4J5M1RWXY/LB1D1 |
Departure
| Time | 2026-05-05 23:45 |
|---|---|
| Airport | Phoenix Sky Harbor International Airport (KPHX) |
Arrival
| Time | 2026-05-06 01:32 |
|---|---|
| Airport | Dallas Fort Worth International Airport (KDFW) |
| Time | Latitude | Longitude | Altitude | Speed | Heading |
|---|---|---|---|---|---|
| 2026-05-05 23:34 | 33.42579 | -112.01805 | 1129 ft | 0 kts | 86° |
| 2026-05-05 23:39 | 33.42580 | -112.01789 | 1134 ft | 6 kts | 85° |
| 2026-05-05 23:40 | 33.42629 | -112.01741 | 1138 ft | 12 kts | 6° |
| 2026-05-05 23:40 | 33.42712 | -112.01739 | 1135 ft | 12 kts | 0° |
| 2026-05-05 23:40 | 33.42780 | -112.01691 | 1134 ft | 12 kts | 51° |
| 2026-05-05 23:40 | 33.42857 | -112.01658 | 1135 ft | 12 kts | 6° |
| 2026-05-05 23:41 | 33.42952 | -112.01656 | 1136 ft | 15 kts | 10° |
| 2026-05-05 23:41 | 33.42996 | -112.01550 | 1134 ft | 15 kts | 88° |
| 2026-05-05 23:41 | 33.42995 | -112.01421 | 1131 ft | 15 kts | 90° |
| 2026-05-05 23:41 | 33.42995 | -112.01292 | 1134 ft | 15 kts | 90° |
| 2026-05-05 23:42 | 33.42996 | -112.01157 | 1136 ft | 18 kts | 90° |
| 2026-05-05 23:42 | 33.42995 | -112.00988 | 1134 ft | 23 kts | 90° |
| 2026-05-05 23:42 | 33.42995 | -112.00765 | 1133 ft | 30 kts | 90° |
| 2026-05-05 23:42 | 33.42994 | -112.00511 | 1134 ft | 30 kts | 90° |
| 2026-05-05 23:43 | 33.42995 | -112.00258 | 1135 ft | 31 kts | 90° |
| 2026-05-05 23:43 | 33.42994 | -112.00004 | 1135 ft | 30 kts | 90° |
| 2026-05-05 23:43 | 33.42994 | -111.99750 | 1133 ft | 31 kts | 90° |
| 2026-05-05 23:43 | 33.42994 | -111.99498 | 1135 ft | 25 kts | 90° |
| 2026-05-05 23:44 | 33.42999 | -111.99375 | 1137 ft | 9 kts | 65° |
| 2026-05-05 23:44 | 33.43049 | -111.99348 | 1141 ft | 8 kts | 5° |
| 2026-05-05 23:44 | 33.43098 | -111.99381 | 1142 ft | 11 kts | 293° |
| 2026-05-05 23:44 | 33.43103 | -111.99492 | 1138 ft | 16 kts | 268° |
| 2026-05-05 23:45 | 33.43102 | -111.99770 | 1141 ft | 65 kts | 270° |
| 2026-05-05 23:45 | 33.43103 | -112.00672 | 1140 ft | 147 kts | 270° |
| 2026-05-05 23:45 | 33.43132 | -112.02076 | 1547 ft | 174 kts | 272° |
| 2026-05-05 23:45 | 33.43154 | -112.03494 | 2582 ft | 170 kts | 266° |
| 2026-05-05 23:46 | 33.43071 | -112.04891 | 3592 ft | 168 kts | 264° |
| 2026-05-05 23:46 | 33.42986 | -112.06365 | 4233 ft | 187 kts | 264° |
| 2026-05-05 23:46 | 33.42797 | -112.07936 | 4972 ft | 196 kts | 256° |
| 2026-05-05 23:46 | 33.42340 | -112.09563 | 5545 ft | 219 kts | 245° |
| 2026-05-05 23:47 | 33.41585 | -112.11252 | 6070 ft | 242 kts | 243° |
| 2026-05-05 23:47 | 33.40857 | -112.13147 | 6829 ft | 257 kts | 246° |
| 2026-05-05 23:47 | 33.40159 | -112.15162 | 7728 ft | 266 kts | 247° |
| 2026-05-05 23:47 | 33.39148 | -112.17007 | 8598 ft | 276 kts | 223° |
| 2026-05-05 23:48 | 33.37367 | -112.17973 | 9550 ft | 287 kts | 188° |
| 2026-05-05 23:48 | 33.35376 | -112.17810 | 10749 ft | 292 kts | 171° |
| 2026-05-05 23:48 | 33.33371 | -112.17185 | 11604 ft | 306 kts | 166° |
| 2026-05-05 23:48 | 33.31292 | -112.16415 | 12644 ft | 317 kts | 165° |
| 2026-05-05 23:49 | 33.29226 | -112.15463 | 13790 ft | 321 kts | 156° |
| 2026-05-05 23:49 | 33.27363 | -112.13855 | 14515 ft | 342 kts | 140° |
| 2026-05-05 23:49 | 33.25743 | -112.11690 | 15400 ft | 355 kts | 129° |
| 2026-05-05 23:49 | 33.24587 | -112.08988 | 16224 ft | 379 kts | 112° |
| 2026-05-05 23:50 | 33.24022 | -112.05836 | 17029 ft | 397 kts | 97° |
| 2026-05-05 23:50 | 33.24179 | -112.02488 | 17932 ft | 412 kts | 80° |
| 2026-05-05 23:50 | 33.24995 | -111.99174 | 18595 ft | 422 kts | 73° |
| 2026-05-05 23:50 | 33.25730 | -111.95720 | 19251 ft | 436 kts | 81° |
| 2026-05-05 23:51 | 33.26366 | -111.92145 | 19949 ft | 445 kts | 75° |
| 2026-05-05 23:51 | 33.27571 | -111.88667 | 20591 ft | 461 kts | 63° |
| 2026-05-05 23:51 | 33.29153 | -111.85281 | 21326 ft | 473 kts | 60° |
| 2026-05-05 23:51 | 33.30808 | -111.81828 | 22068 ft | 484 kts | 60° |
| 2026-05-05 23:52 | 33.32471 | -111.78266 | 22775 ft | 496 kts | 62° |
| 2026-05-05 23:52 | 33.34131 | -111.74583 | 23474 ft | 510 kts | 63° |
| 2026-05-05 23:52 | 33.35797 | -111.70794 | 24092 ft | 520 kts | 63° |
| 2026-05-05 23:52 | 33.37473 | -111.66928 | 24815 ft | 527 kts | 64° |
| 2026-05-05 23:53 | 33.39165 | -111.63010 | 25556 ft | 534 kts | 64° |
| 2026-05-05 23:53 | 33.40888 | -111.59034 | 26239 ft | 542 kts | 64° |
| 2026-05-05 23:53 | 33.42637 | -111.54999 | 26805 ft | 551 kts | 65° |
| 2026-05-05 23:53 | 33.44246 | -111.50802 | 27439 ft | 558 kts | 71° |
| 2026-05-05 23:54 | 33.45629 | -111.46429 | 28102 ft | 564 kts | 74° |
| 2026-05-05 23:54 | 33.46923 | -111.41963 | 28776 ft | 571 kts | 75° |
| 2026-05-05 23:54 | 33.48234 | -111.37456 | 29581 ft | 575 kts | 74° |
| 2026-05-05 23:54 | 33.49600 | -111.32951 | 30492 ft | 575 kts | 73° |
| 2026-05-05 23:55 | 33.51005 | -111.28477 | 31421 ft | 571 kts | 73° |
| 2026-05-05 23:55 | 33.52410 | -111.24057 | 32411 ft | 565 kts | 73° |
| 2026-05-05 23:55 | 33.53782 | -111.19657 | 33285 ft | 563 kts | 74° |
| 2026-05-05 23:55 | 33.55069 | -111.15236 | 34028 ft | 561 kts | 75° |
| 2026-05-05 23:56 | 33.56299 | -111.10796 | 34618 ft | 561 kts | 76° |
| 2026-05-05 23:56 | 33.57504 | -111.06369 | 34876 ft | 555 kts | 76° |
| 2026-05-05 23:56 | 33.59510 | -110.99013 | 34918 ft | 567 kts | 76° |
| 2026-05-05 23:57 | 33.60757 | -110.94482 | 35078 ft | 578 kts | 75° |
| 2026-05-05 23:57 | 33.62033 | -110.89879 | 35334 ft | 585 kts | 75° |
| 2026-05-05 23:57 | 33.63329 | -110.85227 | 35737 ft | 589 kts | 75° |
| 2026-05-05 23:57 | 33.64627 | -110.80576 | 36417 ft | 585 kts | 75° |
| 2026-05-05 23:58 | 33.65908 | -110.75975 | 37145 ft | 581 kts | 75° |
| 2026-05-05 23:58 | 33.67186 | -110.71372 | 37663 ft | 580 kts | 75° |
| 2026-05-05 23:58 | 33.68454 | -110.66787 | 38202 ft | 579 kts | 75° |
| 2026-05-05 23:58 | 33.69718 | -110.62210 | 38723 ft | 577 kts | 75° |
| 2026-05-05 23:59 | 33.70974 | -110.57643 | 39195 ft | 574 kts | 75° |
| 2026-05-05 23:59 | 33.72222 | -110.53101 | 39678 ft | 572 kts | 74° |
| 2026-05-05 23:59 | 33.73464 | -110.48578 | 40158 ft | 568 kts | 74° |
| 2026-05-05 23:59 | 33.74697 | -110.44082 | 40555 ft | 566 kts | 74° |
| 2026-05-06 00:00 | 33.75926 | -110.39589 | 40887 ft | 566 kts | 74° |
| 2026-05-06 00:00 | 33.77160 | -110.35069 | 40846 ft | 571 kts | 74° |
| 2026-05-06 00:00 | 33.79629 | -110.26017 | 40864 ft | 566 kts | 74° |
| 2026-05-06 00:01 | 33.82060 | -110.17092 | 40849 ft | 560 kts | 74° |
| 2026-05-06 00:01 | 33.84472 | -110.08199 | 40848 ft | 559 kts | 74° |
| 2026-05-06 00:02 | 33.86872 | -109.99313 | 40858 ft | 559 kts | 74° |
| 2026-05-06 00:02 | 33.89270 | -109.90408 | 40867 ft | 560 kts | 74° |
| 2026-05-06 00:03 | 33.91666 | -109.81485 | 40864 ft | 561 kts | 74° |
| 2026-05-06 00:03 | 33.94064 | -109.72529 | 40856 ft | 562 kts | 74° |
| 2026-05-06 00:04 | 33.96457 | -109.63554 | 40880 ft | 563 kts | 75° |
| 2026-05-06 00:04 | 33.98848 | -109.54559 | 40924 ft | 564 kts | 75° |
| 2026-05-06 00:05 | 34.02426 | -109.41047 | 40971 ft | 565 kts | 75° |
| 2026-05-06 00:06 | 34.04808 | -109.32015 | 41015 ft | 566 kts | 75° |
| 2026-05-06 00:06 | 34.07190 | -109.22954 | 41012 ft | 567 kts | 75° |
| 2026-05-06 00:07 | 34.09571 | -109.13869 | 40968 ft | 568 kts | 75° |
| 2026-05-06 00:07 | 34.11951 | -109.04761 | 40897 ft | 569 kts | 75° |
| 2026-05-06 00:08 | 34.14325 | -108.95640 | 40841 ft | 570 kts | 75° |
| 2026-05-06 00:08 | 34.16680 | -108.86561 | 40785 ft | 571 kts | 75° |
| 2026-05-06 00:09 | 34.19047 | -108.77404 | 40733 ft | 571 kts | 76° |
| 2026-05-06 00:09 | 34.21405 | -108.68251 | 40769 ft | 571 kts | 76° |
| 2026-05-06 00:10 | 34.23760 | -108.59076 | 40778 ft | 572 kts | 76° |
| 2026-05-06 00:10 | 34.26111 | -108.49889 | 40771 ft | 573 kts | 76° |
| 2026-05-06 00:11 | 34.28458 | -108.40682 | 40748 ft | 573 kts | 76° |
| 2026-05-06 00:11 | 34.30795 | -108.31483 | 40771 ft | 572 kts | 76° |
| 2026-05-06 00:12 | 34.33127 | -108.22273 | 40779 ft | 573 kts | 76° |
| 2026-05-06 00:12 | 34.35451 | -108.13059 | 40774 ft | 573 kts | 76° |
| 2026-05-06 00:13 | 34.37770 | -108.03835 | 40772 ft | 573 kts | 76° |
| 2026-05-06 00:13 | 34.38670 | -107.99162 | 40755 ft | 565 kts | 90° |
| 2026-05-06 00:13 | 34.38836 | -107.94461 | 40805 ft | 556 kts | 96° |
| 2026-05-06 00:14 | 34.38776 | -107.85102 | 40790 ft | 556 kts | 97° |
| 2026-05-06 00:14 | 34.38727 | -107.75719 | 40779 ft | 559 kts | 96° |
| 2026-05-06 00:15 | 34.38792 | -107.66311 | 40760 ft | 559 kts | 95° |
| 2026-05-06 00:15 | 34.38900 | -107.56904 | 40770 ft | 558 kts | 95° |
| 2026-05-06 00:16 | 34.38994 | -107.47568 | 40777 ft | 559 kts | 95° |
| 2026-05-06 00:16 | 34.39071 | -107.38151 | 40740 ft | 560 kts | 96° |
| 2026-05-06 00:17 | 34.39138 | -107.28727 | 40746 ft | 560 kts | 96° |
| 2026-05-06 00:17 | 34.39228 | -107.19294 | 40732 ft | 560 kts | 96° |
| 2026-05-06 00:18 | 34.39271 | -107.09875 | 40733 ft | 559 kts | 96° |
| 2026-05-06 00:18 | 34.39282 | -107.00452 | 40725 ft | 559 kts | 97° |
| 2026-05-06 00:19 | 34.39322 | -106.91016 | 40732 ft | 563 kts | 96° |
| 2026-05-06 00:19 | 34.39367 | -106.81498 | 40748 ft | 568 kts | 96° |
| 2026-05-06 00:20 | 34.39398 | -106.71908 | 40764 ft | 571 kts | 96° |
| 2026-05-06 00:20 | 34.39552 | -106.62264 | 40772 ft | 576 kts | 93° |
| 2026-05-06 00:21 | 34.40008 | -106.52558 | 40764 ft | 578 kts | 92° |
| 2026-05-06 00:21 | 34.40485 | -106.42844 | 40798 ft | 578 kts | 92° |
| 2026-05-06 00:22 | 34.40894 | -106.33135 | 40760 ft | 577 kts | 93° |
| 2026-05-06 00:22 | 34.41263 | -106.23445 | 40801 ft | 576 kts | 93° |
| 2026-05-06 00:23 | 34.41620 | -106.13770 | 40783 ft | 575 kts | 94° |
| 2026-05-06 00:23 | 34.41975 | -106.04096 | 40793 ft | 575 kts | 94° |
| 2026-05-06 00:24 | 34.42324 | -105.94424 | 40780 ft | 575 kts | 93° |
| 2026-05-06 00:24 | 34.42667 | -105.84757 | 40776 ft | 575 kts | 93° |
| 2026-05-06 00:25 | 34.43002 | -105.75077 | 40774 ft | 575 kts | 93° |
| 2026-05-06 00:25 | 34.43329 | -105.65393 | 40777 ft | 576 kts | 94° |
| 2026-05-06 00:26 | 34.43650 | -105.55714 | 40752 ft | 575 kts | 94° |
| 2026-05-06 00:26 | 34.43962 | -105.46032 | 40743 ft | 575 kts | 94° |
| 2026-05-06 00:27 | 34.44253 | -105.36360 | 40730 ft | 575 kts | 94° |
| 2026-05-06 00:27 | 34.44538 | -105.26688 | 40737 ft | 574 kts | 94° |
| 2026-05-06 00:28 | 34.44844 | -105.17010 | 40703 ft | 575 kts | 95° |
| 2026-05-06 00:28 | 34.45135 | -105.07321 | 40683 ft | 576 kts | 95° |
| 2026-05-06 00:29 | 34.45408 | -104.97620 | 40681 ft | 577 kts | 95° |
| 2026-05-06 00:29 | 34.45671 | -104.87893 | 40672 ft | 579 kts | 95° |
| 2026-05-06 00:30 | 34.45930 | -104.78194 | 40686 ft | 581 kts | 95° |
| 2026-05-06 00:30 | 34.46188 | -104.68398 | 40666 ft | 582 kts | 95° |
| 2026-05-06 00:31 | 34.46431 | -104.58582 | 40663 ft | 584 kts | 95° |
| 2026-05-06 00:31 | 34.46677 | -104.48740 | 40629 ft | 584 kts | 95° |
| 2026-05-06 00:32 | 34.46906 | -104.38922 | 40634 ft | 583 kts | 95° |
| 2026-05-06 00:32 | 34.47128 | -104.29089 | 40629 ft | 583 kts | 96° |
| 2026-05-06 00:33 | 34.47332 | -104.19267 | 40626 ft | 584 kts | 95° |
| 2026-05-06 00:33 | 34.47542 | -104.09422 | 40633 ft | 585 kts | 95° |
| 2026-05-06 00:34 | 34.47746 | -103.99558 | 40620 ft | 586 kts | 95° |
| 2026-05-06 00:34 | 34.47940 | -103.89678 | 40629 ft | 586 kts | 95° |
| 2026-05-06 00:35 | 34.48125 | -103.79808 | 40612 ft | 585 kts | 95° |
| 2026-05-06 00:35 | 34.48301 | -103.69962 | 40632 ft | 584 kts | 95° |
| 2026-05-06 00:36 | 34.48469 | -103.60131 | 40640 ft | 583 kts | 95° |
| 2026-05-06 00:36 | 34.48629 | -103.50327 | 40641 ft | 581 kts | 95° |
| 2026-05-06 00:37 | 34.48764 | -103.40531 | 40652 ft | 581 kts | 96° |
| 2026-05-06 00:37 | 34.48889 | -103.30764 | 40713 ft | 578 kts | 95° |
| 2026-05-06 00:38 | 34.49053 | -103.21045 | 40697 ft | 576 kts | 95° |
| 2026-05-06 00:38 | 34.49188 | -103.11369 | 40746 ft | 574 kts | 95° |
| 2026-05-06 00:39 | 34.49299 | -103.01740 | 40757 ft | 576 kts | 95° |
| 2026-05-06 00:39 | 34.49421 | -102.92018 | 40761 ft | 577 kts | 95° |
| 2026-05-06 00:40 | 34.49367 | -102.82290 | 40777 ft | 576 kts | 101° |
| 2026-05-06 00:40 | 34.48488 | -102.72720 | 40777 ft | 571 kts | 105° |
| 2026-05-06 00:41 | 34.47439 | -102.63170 | 40787 ft | 573 kts | 105° |
| 2026-05-06 00:41 | 34.46367 | -102.53553 | 40798 ft | 578 kts | 105° |
| 2026-05-06 00:42 | 34.45340 | -102.43877 | 40798 ft | 580 kts | 105° |
| 2026-05-06 00:42 | 34.44320 | -102.34145 | 40795 ft | 582 kts | 104° |
| 2026-05-06 00:43 | 34.43470 | -102.26001 | 40796 ft | 580 kts | 104° |
| 2026-05-06 00:43 | 34.42269 | -102.14769 | 40815 ft | 577 kts | 105° |
| 2026-05-06 00:44 | 34.41239 | -102.05148 | 40799 ft | 577 kts | 105° |
| 2026-05-06 00:44 | 34.40347 | -101.97114 | 40817 ft | 571 kts | 104° |
| 2026-05-06 00:45 | 34.39311 | -101.87595 | 40836 ft | 571 kts | 104° |
| 2026-05-06 00:45 | 34.38266 | -101.78057 | 40841 ft | 573 kts | 104° |
| 2026-05-06 00:46 | 34.37203 | -101.68475 | 40850 ft | 576 kts | 104° |
| 2026-05-06 00:46 | 34.36135 | -101.58868 | 40833 ft | 577 kts | 104° |
| 2026-05-06 00:47 | 34.35064 | -101.49271 | 40842 ft | 575 kts | 104° |
| 2026-05-06 00:47 | 34.33963 | -101.39738 | 40851 ft | 578 kts | 104° |
| 2026-05-06 00:48 | 34.32852 | -101.30068 | 40841 ft | 581 kts | 104° |
| 2026-05-06 00:48 | 34.31754 | -101.20397 | 40848 ft | 580 kts | 104° |
| 2026-05-06 00:49 | 34.30643 | -101.10757 | 40847 ft | 578 kts | 104° |
| 2026-05-06 00:49 | 34.29522 | -101.01146 | 40860 ft | 576 kts | 104° |
| 2026-05-06 00:50 | 34.28395 | -100.91563 | 40854 ft | 575 kts | 105° |
| 2026-05-06 00:50 | 34.27263 | -100.81994 | 40858 ft | 574 kts | 105° |
| 2026-05-06 00:51 | 34.26125 | -100.72443 | 40819 ft | 574 kts | 105° |
| 2026-05-06 00:51 | 34.24983 | -100.62915 | 40864 ft | 573 kts | 105° |
| 2026-05-06 00:52 | 34.23831 | -100.53372 | 40850 ft | 574 kts | 104° |
| 2026-05-06 00:52 | 34.22671 | -100.43820 | 40854 ft | 575 kts | 104° |
| 2026-05-06 00:53 | 34.21503 | -100.34268 | 40851 ft | 576 kts | 105° |
| 2026-05-06 00:53 | 34.20281 | -100.24714 | 40865 ft | 572 kts | 109° |
| 2026-05-06 00:54 | 34.17868 | -100.15723 | 40855 ft | 558 kts | 121° |
| 2026-05-06 00:54 | 34.14986 | -100.07040 | 40850 ft | 557 kts | 121° |
| 2026-05-06 00:55 | 34.12193 | -99.98287 | 40848 ft | 560 kts | 119° |
| 2026-05-06 00:55 | 34.09511 | -99.89457 | 40853 ft | 561 kts | 119° |
| 2026-05-06 00:56 | 34.06840 | -99.80609 | 40476 ft | 566 kts | 118° |
| 2026-05-06 00:56 | 34.05477 | -99.76136 | 39778 ft | 570 kts | 119° |
| 2026-05-06 00:56 | 34.04115 | -99.71662 | 39281 ft | 565 kts | 119° |
| 2026-05-06 00:56 | 34.02770 | -99.67245 | 38903 ft | 558 kts | 120° |
| 2026-05-06 00:57 | 34.01435 | -99.62874 | 38517 ft | 553 kts | 120° |
| 2026-05-06 00:57 | 34.00109 | -99.58555 | 38072 ft | 547 kts | 120° |
| 2026-05-06 00:57 | 33.98791 | -99.54274 | 37675 ft | 541 kts | 120° |
| 2026-05-06 00:57 | 33.97490 | -99.50048 | 37286 ft | 535 kts | 120° |
| 2026-05-06 00:58 | 33.96210 | -99.45871 | 36922 ft | 528 kts | 120° |
| 2026-05-06 00:58 | 33.94937 | -99.41753 | 36532 ft | 523 kts | 121° |
| 2026-05-06 00:58 | 33.93661 | -99.37666 | 36162 ft | 518 kts | 121° |
| 2026-05-06 00:58 | 33.92394 | -99.33620 | 35794 ft | 514 kts | 121° |
| 2026-05-06 00:59 | 33.91142 | -99.29618 | 35422 ft | 510 kts | 121° |
| 2026-05-06 00:59 | 33.89896 | -99.25632 | 35037 ft | 506 kts | 121° |
| 2026-05-06 00:59 | 33.88659 | -99.21680 | 34644 ft | 503 kts | 121° |
| 2026-05-06 00:59 | 33.87429 | -99.17749 | 34253 ft | 501 kts | 121° |
| 2026-05-06 01:00 | 33.86205 | -99.13845 | 33817 ft | 497 kts | 121° |
| 2026-05-06 01:00 | 33.84988 | -99.09966 | 33393 ft | 494 kts | 121° |
| 2026-05-06 01:00 | 33.83784 | -99.06126 | 33120 ft | 486 kts | 121° |
| 2026-05-06 01:00 | 33.82598 | -99.02347 | 32801 ft | 482 kts | 121° |
| 2026-05-06 01:01 | 33.81408 | -98.98576 | 32424 ft | 483 kts | 121° |
| 2026-05-06 01:01 | 33.80201 | -98.94771 | 32056 ft | 493 kts | 121° |
| 2026-05-06 01:01 | 33.78968 | -98.90883 | 31670 ft | 500 kts | 120° |
| 2026-05-06 01:01 | 33.77750 | -98.87031 | 31258 ft | 499 kts | 120° |
| 2026-05-06 01:02 | 33.76509 | -98.83096 | 30842 ft | 495 kts | 120° |
| 2026-05-06 01:02 | 33.75307 | -98.79292 | 30450 ft | 492 kts | 120° |
| 2026-05-06 01:02 | 33.74092 | -98.75457 | 30043 ft | 489 kts | 120° |
| 2026-05-06 01:02 | 33.72887 | -98.71653 | 29589 ft | 486 kts | 120° |
| 2026-05-06 01:03 | 33.71692 | -98.67872 | 29140 ft | 482 kts | 120° |
| 2026-05-06 01:03 | 33.70507 | -98.64126 | 28716 ft | 478 kts | 120° |
| 2026-05-06 01:03 | 33.69330 | -98.60415 | 28318 ft | 474 kts | 120° |
| 2026-05-06 01:03 | 33.68161 | -98.56735 | 27923 ft | 469 kts | 120° |
| 2026-05-06 01:04 | 33.67003 | -98.53092 | 27539 ft | 466 kts | 120° |
| 2026-05-06 01:04 | 33.65851 | -98.49473 | 27112 ft | 462 kts | 120° |
| 2026-05-06 01:04 | 33.64711 | -98.45897 | 26770 ft | 457 kts | 120° |
| 2026-05-06 01:04 | 33.63579 | -98.42349 | 26415 ft | 453 kts | 120° |
| 2026-05-06 01:05 | 33.62453 | -98.38826 | 26060 ft | 450 kts | 120° |
| 2026-05-06 01:05 | 33.61334 | -98.35331 | 25674 ft | 448 kts | 120° |
| 2026-05-06 01:05 | 33.60220 | -98.31862 | 25303 ft | 445 kts | 120° |
| 2026-05-06 01:05 | 33.59113 | -98.28411 | 24946 ft | 442 kts | 120° |
| 2026-05-06 01:06 | 33.58012 | -98.24980 | 24586 ft | 440 kts | 120° |
| 2026-05-06 01:06 | 33.56916 | -98.21567 | 24220 ft | 437 kts | 120° |
| 2026-05-06 01:06 | 33.55823 | -98.18170 | 23831 ft | 436 kts | 120° |
| 2026-05-06 01:06 | 33.54730 | -98.14780 | 23413 ft | 436 kts | 120° |
| 2026-05-06 01:07 | 33.53635 | -98.11389 | 22939 ft | 436 kts | 119° |
| 2026-05-06 01:07 | 33.52544 | -98.08009 | 22494 ft | 434 kts | 119° |
| 2026-05-06 01:07 | 33.51460 | -98.04650 | 22069 ft | 431 kts | 119° |
| 2026-05-06 01:07 | 33.50382 | -98.01311 | 21654 ft | 429 kts | 119° |
| 2026-05-06 01:08 | 33.49311 | -97.97989 | 21236 ft | 425 kts | 118° |
| 2026-05-06 01:08 | 33.48245 | -97.94707 | 20826 ft | 420 kts | 119° |
| 2026-05-06 01:08 | 33.47196 | -97.91461 | 20426 ft | 416 kts | 118° |
| 2026-05-06 01:08 | 33.46150 | -97.88253 | 20072 ft | 412 kts | 119° |
| 2026-05-06 01:09 | 33.45119 | -97.85054 | 19688 ft | 412 kts | 118° |
| 2026-05-06 01:09 | 33.44095 | -97.81856 | 19293 ft | 410 kts | 118° |
| 2026-05-06 01:09 | 33.43073 | -97.78672 | 18887 ft | 409 kts | 118° |
| 2026-05-06 01:09 | 33.42053 | -97.75503 | 18514 ft | 408 kts | 118° |
| 2026-05-06 01:10 | 33.41035 | -97.72342 | 18117 ft | 407 kts | 118° |
| 2026-05-06 01:10 | 33.40013 | -97.69189 | 17687 ft | 408 kts | 118° |
| 2026-05-06 01:10 | 33.38989 | -97.66029 | 17293 ft | 403 kts | 119° |
| 2026-05-06 01:10 | 33.37683 | -97.63172 | 16871 ft | 381 kts | 139° |
| 2026-05-06 01:11 | 33.35862 | -97.61053 | 16559 ft | 358 kts | 148° |
| 2026-05-06 01:11 | 33.34042 | -97.59026 | 16221 ft | 357 kts | 146° |
| 2026-05-06 01:11 | 33.32266 | -97.56968 | 15884 ft | 354 kts | 145° |
| 2026-05-06 01:11 | 33.30520 | -97.54916 | 15545 ft | 350 kts | 144° |
| 2026-05-06 01:12 | 33.28795 | -97.52886 | 15220 ft | 345 kts | 144° |
| 2026-05-06 01:12 | 33.27097 | -97.50887 | 14892 ft | 341 kts | 144° |
| 2026-05-06 01:12 | 33.25413 | -97.48910 | 14545 ft | 337 kts | 144° |
| 2026-05-06 01:12 | 33.23746 | -97.46957 | 14229 ft | 335 kts | 144° |
| 2026-05-06 01:13 | 33.22090 | -97.45022 | 13920 ft | 332 kts | 144° |
| 2026-05-06 01:13 | 33.20452 | -97.43106 | 13620 ft | 327 kts | 144° |
| 2026-05-06 01:13 | 33.18836 | -97.41213 | 13271 ft | 323 kts | 144° |
| 2026-05-06 01:13 | 33.17230 | -97.39336 | 12953 ft | 323 kts | 143° |
| 2026-05-06 01:14 | 33.14037 | -97.35612 | 12340 ft | 324 kts | 143° |
| 2026-05-06 01:14 | 33.12418 | -97.33722 | 12092 ft | 317 kts | 143° |
| 2026-05-06 01:14 | 33.10896 | -97.31935 | 12041 ft | 309 kts | 143° |
| 2026-05-06 01:15 | 33.09344 | -97.30121 | 12012 ft | 313 kts | 143° |
| 2026-05-06 01:15 | 33.07793 | -97.28313 | 12007 ft | 311 kts | 143° |
| 2026-05-06 01:15 | 33.06240 | -97.26500 | 12000 ft | 306 kts | 143° |
| 2026-05-06 01:15 | 33.04714 | -97.24728 | 12004 ft | 306 kts | 144° |
| 2026-05-06 01:16 | 33.03212 | -97.22982 | 12012 ft | 307 kts | 143° |
| 2026-05-06 01:16 | 33.01687 | -97.21201 | 12004 ft | 307 kts | 143° |
| 2026-05-06 01:16 | 33.00189 | -97.19449 | 11988 ft | 294 kts | 143° |
| 2026-05-06 01:16 | 32.98744 | -97.17855 | 11973 ft | 268 kts | 156° |
| 2026-05-06 01:17 | 32.97112 | -97.17055 | 11888 ft | 250 kts | 179° |
| 2026-05-06 01:17 | 32.95403 | -97.16900 | 11561 ft | 243 kts | 186° |
| 2026-05-06 01:17 | 32.93722 | -97.16816 | 11254 ft | 238 kts | 186° |
| 2026-05-06 01:17 | 32.92063 | -97.16728 | 11010 ft | 239 kts | 186° |
| 2026-05-06 01:18 | 32.90395 | -97.16644 | 10784 ft | 240 kts | 186° |
| 2026-05-06 01:18 | 32.88716 | -97.16559 | 10547 ft | 242 kts | 185° |
| 2026-05-06 01:18 | 32.87027 | -97.16468 | 10319 ft | 244 kts | 185° |
| 2026-05-06 01:18 | 32.85336 | -97.16375 | 10083 ft | 243 kts | 185° |
| 2026-05-06 01:19 | 32.83669 | -97.16286 | 9863 ft | 236 kts | 185° |
| 2026-05-06 01:19 | 32.82051 | -97.16194 | 9611 ft | 232 kts | 185° |
| 2026-05-06 01:19 | 32.80437 | -97.16106 | 9206 ft | 232 kts | 185° |
| 2026-05-06 01:19 | 32.78840 | -97.16051 | 8841 ft | 226 kts | 185° |
| 2026-05-06 01:20 | 32.77275 | -97.15892 | 8467 ft | 225 kts | 181° |
| 2026-05-06 01:20 | 32.75734 | -97.15813 | 8073 ft | 219 kts | 186° |
| 2026-05-06 01:20 | 32.74221 | -97.15826 | 7716 ft | 217 kts | 186° |
| 2026-05-06 01:20 | 32.72716 | -97.15861 | 7362 ft | 216 kts | 186° |
| 2026-05-06 01:21 | 32.71218 | -97.15903 | 6994 ft | 215 kts | 186° |
| 2026-05-06 01:21 | 32.69735 | -97.15965 | 6645 ft | 212 kts | 186° |
| 2026-05-06 01:21 | 32.68263 | -97.16027 | 6294 ft | 212 kts | 186° |
| 2026-05-06 01:21 | 32.66770 | -97.16102 | 5945 ft | 216 kts | 185° |
| 2026-05-06 01:22 | 32.65264 | -97.16142 | 5580 ft | 216 kts | 181° |
| 2026-05-06 01:22 | 32.63765 | -97.16054 | 5215 ft | 215 kts | 179° |
| 2026-05-06 01:22 | 32.62294 | -97.15951 | 4922 ft | 208 kts | 179° |
| 2026-05-06 01:22 | 32.60884 | -97.15856 | 4788 ft | 202 kts | 179° |
| 2026-05-06 01:23 | 32.59457 | -97.15767 | 4741 ft | 209 kts | 179° |
| 2026-05-06 01:23 | 32.57985 | -97.15676 | 4691 ft | 213 kts | 179° |
| 2026-05-06 01:23 | 32.56512 | -97.15540 | 4617 ft | 213 kts | 168° |
| 2026-05-06 01:23 | 32.55270 | -97.14557 | 4622 ft | 227 kts | 127° |
| 2026-05-06 01:24 | 32.54795 | -97.12753 | 4640 ft | 238 kts | 93° |
| 2026-05-06 01:24 | 32.55127 | -97.10835 | 4651 ft | 241 kts | 68° |
| 2026-05-06 01:24 | 32.56073 | -97.09215 | 4650 ft | 241 kts | 47° |
| 2026-05-06 01:24 | 32.57299 | -97.07795 | 4405 ft | 251 kts | 44° |
| 2026-05-06 01:25 | 32.58576 | -97.06414 | 4112 ft | 242 kts | 37° |
| 2026-05-06 01:25 | 32.60061 | -97.05688 | 3953 ft | 224 kts | 8° |
| 2026-05-06 01:25 | 32.61575 | -97.05572 | 3842 ft | 214 kts | 360° |
| 2026-05-06 01:25 | 32.63043 | -97.05567 | 3746 ft | 207 kts | 359° |
| 2026-05-06 01:26 | 32.64461 | -97.05570 | 3661 ft | 201 kts | 359° |
| 2026-05-06 01:26 | 32.65858 | -97.05577 | 3569 ft | 201 kts | 359° |
| 2026-05-06 01:26 | 32.67260 | -97.05580 | 3518 ft | 202 kts | 359° |
| 2026-05-06 01:26 | 32.68660 | -97.05578 | 3440 ft | 201 kts | 359° |
| 2026-05-06 01:27 | 32.70052 | -97.05572 | 3357 ft | 198 kts | 1° |
| 2026-05-06 01:27 | 32.71420 | -97.05566 | 3257 ft | 196 kts | 2° |
| 2026-05-06 01:27 | 32.72780 | -97.05562 | 3179 ft | 195 kts | 1° |
| 2026-05-06 01:27 | 32.74138 | -97.05556 | 3097 ft | 195 kts | 2° |
| 2026-05-06 01:28 | 32.75474 | -97.05548 | 2918 ft | 190 kts | 2° |
| 2026-05-06 01:28 | 32.76773 | -97.05539 | 2746 ft | 186 kts | 1° |
| 2026-05-06 01:28 | 32.77626 | -97.05533 | 2600 ft | 182 kts | 1° |
| 2026-05-06 01:28 | 32.78881 | -97.05525 | 2397 ft | 179 kts | 1° |
| 2026-05-06 01:29 | 32.80113 | -97.05520 | 2108 ft | 174 kts | 0° |
| 2026-05-06 01:29 | 32.81246 | -97.05514 | 1873 ft | 149 kts | 2° |
| 2026-05-06 01:29 | 32.82213 | -97.05510 | 1690 ft | 136 kts | 0° |
| 2026-05-06 01:29 | 32.83146 | -97.05549 | 1551 ft | 133 kts | 359° |
| 2026-05-06 01:30 | 32.84089 | -97.05537 | 1357 ft | 137 kts | 2° |
| 2026-05-06 01:30 | 32.85046 | -97.05510 | 1219 ft | 137 kts | 359° |
| 2026-05-06 01:30 | 32.85985 | -97.05514 | 1074 ft | 134 kts | 359° |
| 2026-05-06 01:30 | 32.86901 | -97.05512 | 882 ft | 132 kts | 0° |
| 2026-05-06 01:31 | 32.87824 | -97.05489 | 663 ft | 134 kts | 2° |
| 2026-05-06 01:31 | 32.88719 | -97.05476 | 598 ft | 114 kts | 0° |
| 2026-05-06 01:31 | 32.89328 | -97.05474 | 619 ft | 61 kts | 0° |
| 2026-05-06 01:31 | 32.89680 | -97.05472 | 617 ft | 54 kts | 0° |
| 2026-05-06 01:32 | 32.90010 | -97.05470 | 624 ft | 33 kts | 0° |
| 2026-05-06 01:32 | 32.90117 | -97.05552 | 623 ft | 16 kts | 276° |
| 2026-05-06 01:32 | 32.90117 | -97.05686 | 615 ft | 16 kts | 269° |
| 2026-05-06 01:32 | 32.90090 | -97.05779 | 620 ft | 11 kts | 205° |
| 2026-05-06 01:33 | 32.89996 | -97.05789 | 621 ft | 16 kts | 181° |
| 2026-05-06 01:33 | 32.89868 | -97.05790 | 618 ft | 20 kts | 180° |
| 2026-05-06 01:33 | 32.89731 | -97.05790 | 616 ft | 19 kts | 179° |
| 2026-05-06 01:33 | 32.89655 | -97.05877 | 617 ft | 17 kts | 264° |
| 2026-05-06 01:34 | 32.89650 | -97.06009 | 618 ft | 12 kts | 269° |
| 2026-05-06 01:34 | 32.89650 | -97.06040 | 607 ft | 4 kts | 271° |
| 2026-05-06 01:34 | 32.89652 | -97.06090 | 607 ft | 3 kts | 276° |
| 2026-05-06 01:34 | 32.89658 | -97.06116 | 607 ft | 4 kts | 293° |
| 2026-05-06 01:35 | 32.89681 | -97.06140 | 607 ft | 4 kts | 326° |
| 2026-05-06 01:35 | 32.89694 | -97.06148 | 621 ft | 0 kts | 335° |